This is the latest recevied weather packets stored in our database for station/object KP4DJT. If no packets are shown the sender has not sent any weather packets the latest 10 day(s).
| Time | Temp. | Humidity | Pressure | Rain* | Wind** | Luminosity | Snow |
|---|---|---|---|---|---|---|---|
| 1777571536 | 16.67° C | 55% | 1017.4 hPa | 0 mm | - | 699 W/m² | - |
| 1777567937 | 15.56° C | 59% | 1018.1 hPa | 0 mm | - | 671 W/m² | - |
| 1777566138 | 15° C | 59% | 1018.2 hPa | 0 mm | - | 439 W/m² | - |
| 1777565537 | 15° C | 60% | 1018.2 hPa | 0 mm | - | 585 W/m² | - |
| 1777557739 | 11.67° C | 70% | 1017.9 hPa | 0 mm | - | 205 W/m² | - |
| 1777554140 | 11.11° C | 73% | 1018.1 hPa | 0 mm | - | 63 W/m² | - |
| 1777543938 | 11.11° C | 76% | 1017.3 hPa | 0 mm | - | 0 W/m² | - |
| 1777539140 | 11.11° C | 75% | 1017.1 hPa | 0 mm | - | 0 W/m² | - |
| 1777536740 | 11.67° C | 74% | 1016.9 hPa | 0 mm | - | 0 W/m² | - |
| 1777531941 | 12.78° C | 70% | 1017.8 hPa | 0 mm | - | 0 W/m² | - |
| 1777530741 | 12.78° C | 69% | 1017.8 hPa | 0 mm | - | 0 W/m² | - |
| 1777530141 | 12.78° C | 69% | 1017.6 hPa | 0 mm | - | 0 W/m² | - |
| 1777527742 | 13.33° C | 68% | 1017.8 hPa | 0 mm | - | 0 W/m² | - |
| 1777526542 | 13.33° C | 66% | 1017.6 hPa | 0 mm | - | 0 W/m² | - |
| 1777522943 | 13.89° C | 65% | 1017.9 hPa | 0 mm | - | 0 W/m² | - |
| 1777521137 | 14.44° C | 64% | 1018.1 hPa | 0 mm | - | 0 W/m² | - |
| 1777518738 | 14.44° C | 63% | 1017.4 hPa | 0 mm | - | 0 W/m² | - |
| 1777516938 | 15° C | 61% | 1017.3 hPa | 0 mm | - | 0 W/m² | - |
| 1777513959 | 16.11° C | 57% | 1016.8 hPa | 0 mm | - | 0 W/m² | - |
| 1777512739 | 16.11° C | 56% | 1016.3 hPa | 0 mm | - | 0 W/m² | - |
| 1777509760 | 17.78° C | 52% | 1015.6 hPa | 0 mm | - | 42 W/m² | - |
| 1777497140 | 18.33° C | 48% | 1015.7 hPa | 0 mm | - | 742 W/m² | - |
| 1777495340 | 18.33° C | 50% | 1016.2 hPa | 0 mm | - | 725 W/m² | - |
| 1777494138 | 17.78° C | 50% | 1016.7 hPa | 0 mm | - | 643 W/m² | - |
| 1777492341 | 17.78° C | 50% | 1016.7 hPa | 0 mm | - | 592 W/m² | - |
* Rain latest hour (hover to see other rain measurements)
** Current wind speed in m/s (hover to see current wind gust speed)